createdAt,value
2017-11-30T00:00:26.854Z,72.12
2017-11-30T00:02:28.930Z,72.19
2017-11-30T00:04:30.817Z,72.23
2017-11-30T00:06:32.808Z,72.33
2017-11-30T00:08:34.695Z,72.37
2017-11-30T00:10:36.887Z,72.39
2017-11-30T00:12:38.870Z,72.46
2017-11-30T00:14:40.771Z,72.50
2017-11-30T00:16:42.846Z,72.49
2017-11-30T00:18:45.027Z,72.58
2017-11-30T00:20:47.695Z,72.63
2017-11-30T00:22:49.851Z,72.65
2017-11-30T00:24:51.795Z,72.71
2017-11-30T00:26:53.880Z,72.76
2017-11-30T00:28:55.842Z,72.86
2017-11-30T00:30:57.759Z,72.89
2017-11-30T00:32:59.656Z,72.99
2017-11-30T00:35:01.105Z,73.03
2017-11-30T00:37:03.201Z,73.09
2017-11-30T00:39:05.208Z,73.10
2017-11-30T00:41:07.093Z,73.07
2017-11-30T00:43:15.196Z,73.09
2017-11-30T00:45:17.071Z,73.20
2017-11-30T00:47:19.016Z,73.04
2017-11-30T00:49:21.012Z,73.13
2017-11-30T00:51:22.870Z,73.34
2017-11-30T00:53:24.490Z,73.36
2017-11-30T00:55:26.087Z,73.46
2017-11-30T00:57:28.049Z,73.45
2017-11-30T00:59:30.222Z,73.47
2017-11-30T01:01:32.248Z,73.46
2017-11-30T01:03:34.093Z,73.47
2017-11-30T01:05:36.046Z,73.43
2017-11-30T01:07:38.040Z,73.46
2017-11-30T01:09:40.084Z,73.43
2017-11-30T01:11:42.069Z,73.35
2017-11-30T01:13:44.077Z,73.42
2017-11-30T01:15:46.051Z,73.34
2017-11-30T01:17:48.034Z,73.43
2017-11-30T01:19:50.209Z,73.48
2017-11-30T01:21:52.086Z,73.40
2017-11-30T01:23:54.047Z,73.42
2017-11-30T01:25:56.036Z,73.49
2017-11-30T01:27:57.892Z,73.49
2017-11-30T01:29:59.385Z,73.49
2017-11-30T01:32:01.150Z,73.52
2017-11-30T01:34:05.268Z,73.66
2017-11-30T01:36:07.194Z,73.61
2017-11-30T01:38:09.105Z,73.70
2017-11-30T01:40:11.213Z,73.73
2017-11-30T01:42:13.071Z,73.78
2017-11-30T01:44:15.024Z,73.80
2017-11-30T01:46:17.026Z,73.84
2017-11-30T01:50:17.707Z,73.92
2017-11-30T01:52:19.471Z,73.93
2017-11-30T01:54:21.286Z,73.93
2017-11-30T02:04:28.286Z,73.95
2017-11-30T02:06:30.245Z,74.05
2017-11-30T02:09:18.569Z,74.05
2017-11-30T02:11:20.534Z,74.23
2017-11-30T02:13:22.892Z,74.05
2017-11-30T02:15:24.727Z,74.14
2017-11-30T02:17:26.716Z,74.15
2017-11-30T02:19:28.586Z,74.18
2017-11-30T02:21:30.747Z,74.13
2017-11-30T02:23:32.909Z,74.12
2017-11-30T02:27:55.720Z,74.11
2017-11-30T02:29:57.940Z,74.08
2017-11-30T02:31:59.662Z,74.18
2017-11-30T02:34:01.266Z,74.27
2017-11-30T02:36:03.227Z,74.43
2017-11-30T02:38:08.204Z,74.26
2017-11-30T02:40:10.238Z,74.30
2017-11-30T02:42:12.093Z,74.40
2017-11-30T02:44:14.009Z,74.36
2017-11-30T02:46:15.668Z,74.28
2017-11-30T02:48:17.216Z,74.47
2017-11-30T02:50:19.220Z,74.44
2017-11-30T02:52:21.199Z,74.45
2017-11-30T02:54:23.237Z,74.55
2017-11-30T02:56:25.078Z,74.52
2017-11-30T02:58:27.064Z,74.52
2017-11-30T03:00:29.114Z,74.64
2017-11-30T03:02:31.079Z,74.68
2017-11-30T03:04:33.047Z,74.66
2017-11-30T03:06:35.782Z,74.81
2017-11-30T03:08:37.291Z,74.74
2017-11-30T03:10:39.228Z,74.81
2017-11-30T03:12:41.105Z,74.85
2017-11-30T03:14:43.032Z,74.92
2017-11-30T03:16:45.008Z,74.91
2017-11-30T03:20:27.249Z,74.97
2017-11-30T03:22:29.195Z,74.99
2017-11-30T03:24:31.451Z,75.04
2017-11-30T03:26:33.722Z,75.07
2017-11-30T03:28:35.875Z,75.10
2017-11-30T03:39:00.206Z,75.20
2017-11-30T03:41:02.400Z,75.17
2017-11-30T03:43:04.869Z,75.28
2017-11-30T03:45:06.727Z,75.30
2017-11-30T03:47:08.785Z,75.28
2017-11-30T03:49:10.730Z,75.32
2017-11-30T03:51:12.511Z,75.37
2017-11-30T03:53:14.461Z,75.35
2017-11-30T03:55:16.437Z,75.36
2017-11-30T03:57:18.267Z,75.48
2017-11-30T03:59:20.565Z,75.48
2017-11-30T04:01:22.519Z,75.43
2017-11-30T04:03:24.879Z,75.47
2017-11-30T04:05:26.912Z,75.54
2017-11-30T04:07:29.128Z,75.52
2017-11-30T04:09:31.581Z,75.57
2017-11-30T04:11:33.453Z,75.61
2017-11-30T04:13:35.691Z,75.75
2017-11-30T04:23:25.554Z,75.80
2017-11-30T04:25:27.747Z,75.74
2017-11-30T04:27:29.875Z,75.82
2017-11-30T04:29:32.038Z,75.93
2017-11-30T04:31:34.250Z,75.88
2017-11-30T04:33:36.593Z,75.98
2017-11-30T04:35:38.732Z,75.95
2017-11-30T04:37:40.897Z,76.09
2017-11-30T04:39:42.873Z,76.08
2017-11-30T04:41:44.867Z,76.02
2017-11-30T04:43:46.784Z,76.11
2017-11-30T04:45:48.878Z,76.02
2017-11-30T04:47:51.450Z,76.07
2017-11-30T04:49:53.783Z,76.09
2017-11-30T04:51:55.871Z,76.11
2017-11-30T04:53:58.558Z,76.14
2017-11-30T04:56:00.922Z,76.17
2017-11-30T04:58:03.250Z,76.29
2017-11-30T05:00:05.303Z,76.33
2017-11-30T05:02:10.851Z,76.23
2017-11-30T05:04:13.281Z,76.34
2017-11-30T05:06:15.840Z,76.33
2017-11-30T05:08:18.000Z,76.43
2017-11-30T05:10:20.598Z,76.44
2017-11-30T05:12:22.950Z,76.50
2017-11-30T05:14:25.433Z,76.50
2017-11-30T05:16:27.594Z,76.50
2017-11-30T05:18:29.736Z,76.60
2017-11-30T05:33:25.972Z,76.71
2017-11-30T05:35:28.349Z,76.70
2017-11-30T05:37:30.804Z,76.78
2017-11-30T05:39:32.973Z,76.80
2017-11-30T05:41:34.932Z,76.94
2017-11-30T05:43:37.418Z,76.77
2017-11-30T05:45:39.912Z,76.98
2017-11-30T05:47:41.940Z,76.88
2017-11-30T05:49:44.116Z,76.86
2017-11-30T05:51:46.594Z,76.92
2017-11-30T05:53:48.555Z,76.93
2017-11-30T05:55:50.816Z,76.95
2017-11-30T05:57:52.793Z,76.95
2017-11-30T05:59:55.055Z,77.04
2017-11-30T06:01:57.533Z,77.04
2017-11-30T06:03:59.988Z,77.14
2017-11-30T06:06:02.464Z,77.19
2017-11-30T06:08:04.732Z,77.14
2017-11-30T06:10:07.426Z,77.16
2017-11-30T06:12:10.420Z,77.22
2017-11-30T06:14:12.849Z,77.11
2017-11-30T06:16:14.929Z,77.19
2017-11-30T06:18:17.733Z,77.20
2017-11-30T06:20:20.107Z,77.17
2017-11-30T06:22:22.968Z,77.24
2017-11-30T06:24:25.761Z,77.35
2017-11-30T06:26:28.033Z,77.31
2017-11-30T06:28:30.710Z,77.36
2017-11-30T06:30:32.947Z,77.42
2017-11-30T06:32:35.427Z,77.52
2017-11-30T06:34:37.708Z,77.41
2017-11-30T06:36:39.954Z,77.41
2017-11-30T06:38:42.555Z,77.42
2017-11-30T06:40:44.975Z,77.42
2017-11-30T06:42:47.748Z,77.50
2017-11-30T06:44:50.408Z,77.55
2017-11-30T06:46:53.383Z,77.62
2017-11-30T06:48:55.947Z,77.54
2017-11-30T06:52:44.899Z,77.56
2017-11-30T06:54:47.267Z,77.57
2017-11-30T06:56:49.453Z,77.57
2017-11-30T06:58:52.295Z,77.58
2017-11-30T07:00:54.827Z,77.71
2017-11-30T07:02:57.488Z,77.63
2017-11-30T07:04:59.937Z,77.73
2017-11-30T07:07:03.607Z,77.69
2017-11-30T07:09:06.551Z,77.82
2017-11-30T07:11:09.134Z,77.80
2017-11-30T07:13:11.580Z,77.77
2017-11-30T07:15:13.947Z,77.78
2017-11-30T07:17:16.656Z,77.82
2017-11-30T07:19:19.107Z,77.81
2017-11-30T07:21:21.565Z,78.01
2017-11-30T07:23:50.946Z,77.97
2017-11-30T07:25:54.541Z,77.85
2017-11-30T07:27:56.971Z,77.85
2017-11-30T07:29:59.807Z,77.88
2017-11-30T07:32:02.303Z,77.90
2017-11-30T07:34:04.872Z,78.01
2017-11-30T07:36:07.639Z,77.96
2017-11-30T07:38:10.056Z,77.94
2017-11-30T07:47:56.005Z,77.94
2017-11-30T07:50:00.695Z,77.87
2017-11-30T07:52:03.616Z,78.06
2017-11-30T07:54:05.961Z,77.95
2017-11-30T08:04:24.349Z,77.92
2017-11-30T08:06:26.875Z,78.02
2017-11-30T08:08:29.615Z,77.97
2017-11-30T08:10:31.876Z,77.98
2017-11-30T08:12:34.763Z,78.06
2017-11-30T08:14:37.976Z,78.01
2017-11-30T08:16:40.991Z,78.00
2017-11-30T08:18:43.656Z,78.10
2017-11-30T08:20:45.876Z,78.01
2017-11-30T08:22:48.872Z,78.06
2017-11-30T08:24:51.643Z,77.98
2017-11-30T08:26:54.004Z,78.06
2017-11-30T08:28:56.718Z,78.08
2017-11-30T08:30:58.967Z,78.04
2017-11-30T08:33:01.744Z,78.12
2017-11-30T08:35:05.748Z,78.08
2017-11-30T08:37:08.274Z,78.08
2017-11-30T08:39:10.900Z,78.09
2017-11-30T08:41:13.574Z,78.10
2017-11-30T08:43:16.152Z,78.05
2017-11-30T08:45:19.030Z,78.11
2017-11-30T08:47:21.587Z,78.10
2017-11-30T08:49:23.975Z,78.13
2017-11-30T08:51:27.579Z,78.18
2017-11-30T08:53:30.489Z,78.25
2017-11-30T08:55:32.936Z,78.29
2017-11-30T08:57:35.605Z,78.30
2017-11-30T09:00:37.876Z,78.21
2017-11-30T09:02:40.478Z,78.40
2017-11-30T09:04:42.968Z,78.36
2017-11-30T09:06:45.945Z,78.49
2017-11-30T09:08:48.253Z,78.42
2017-11-30T09:10:51.580Z,78.42
2017-11-30T09:12:54.373Z,78.35
2017-11-30T09:20:56.564Z,78.42
2017-11-30T09:22:59.006Z,78.50
2017-11-30T09:25:02.007Z,78.56
2017-11-30T09:27:06.766Z,78.52
2017-11-30T09:29:09.541Z,78.65
2017-11-30T09:31:12.899Z,78.62
2017-11-30T09:33:16.559Z,78.57
2017-11-30T09:35:19.286Z,78.50
2017-11-30T09:37:22.432Z,78.44
2017-11-30T09:45:57.611Z,78.54
2017-11-30T09:48:00.055Z,78.61
2017-11-30T09:50:02.986Z,78.65
2017-11-30T10:02:51.706Z,78.74
2017-11-30T10:04:54.253Z,78.60
2017-11-30T10:06:56.700Z,78.77
2017-11-30T10:08:59.399Z,78.80
2017-11-30T10:11:02.372Z,78.83
2017-11-30T10:13:05.061Z,78.93
2017-11-30T10:15:09.050Z,78.98
2017-11-30T10:17:11.739Z,78.98
2017-11-30T10:19:14.834Z,79.21
2017-11-30T10:21:17.634Z,79.08
2017-11-30T10:23:20.702Z,79.15
2017-11-30T10:33:45.845Z,79.04
2017-11-30T10:35:48.760Z,79.13
2017-11-30T10:37:50.908Z,79.18
2017-11-30T10:39:53.695Z,79.32
2017-11-30T10:41:56.031Z,79.31
2017-11-30T10:43:59.025Z,79.71
2017-11-30T10:46:01.604Z,79.44
2017-11-30T10:48:03.947Z,80.15
2017-11-30T10:50:06.564Z,79.83
2017-11-30T10:52:08.752Z,80.31
2017-11-30T10:54:11.380Z,80.24
2017-11-30T10:56:13.847Z,80.27
2017-11-30T10:58:20.441Z,80.49
2017-11-30T11:00:23.439Z,81.01
2017-11-30T11:02:26.724Z,81.30
2017-11-30T11:04:29.574Z,81.22
2017-11-30T11:06:32.708Z,80.94
2017-11-30T11:08:35.047Z,80.80
2017-11-30T11:10:38.955Z,80.76
2017-11-30T11:12:42.132Z,80.54
2017-11-30T11:14:45.652Z,80.32
2017-11-30T11:16:49.044Z,80.17
2017-11-30T11:18:51.813Z,80.33
2017-11-30T11:20:54.266Z,80.11
2017-11-30T11:22:56.965Z,79.98
2017-11-30T11:24:59.636Z,79.80
2017-11-30T11:38:09.970Z,79.23
2017-11-30T11:40:12.804Z,79.13
2017-11-30T11:42:16.665Z,79.06
2017-11-30T11:44:20.179Z,78.96
2017-11-30T11:46:23.465Z,78.90
2017-11-30T11:48:26.949Z,78.88
2017-11-30T11:50:30.445Z,78.77
2017-11-30T11:52:33.307Z,78.74
2017-11-30T11:54:36.526Z,78.65
2017-11-30T11:56:39.420Z,78.63
2017-11-30T11:58:42.957Z,78.62
2017-11-30T12:00:46.421Z,78.53
2017-11-30T12:02:48.970Z,78.44
2017-11-30T12:04:51.775Z,78.38
2017-11-30T12:06:54.935Z,78.38
2017-11-30T12:10:01.462Z,78.36
2017-11-30T12:20:27.960Z,78.06
2017-11-30T12:22:31.750Z,77.97
2017-11-30T12:24:35.062Z,77.97
2017-11-30T12:26:38.409Z,77.98
2017-11-30T12:28:42.616Z,77.85
2017-11-30T12:30:46.139Z,77.76
2017-11-30T12:32:49.659Z,77.76
2017-11-30T12:34:53.606Z,77.68
2017-11-30T12:36:58.897Z,77.69
2017-11-30T12:39:04.893Z,77.76
2017-11-30T12:41:08.449Z,77.60
2017-11-30T12:43:12.513Z,77.47
2017-11-30T12:45:15.428Z,77.43
2017-11-30T12:47:18.091Z,77.39
2017-11-30T12:49:21.931Z,77.47
2017-11-30T12:51:25.427Z,77.28
2017-11-30T12:53:40.209Z,77.28
2017-11-30T12:55:47.332Z,77.25
2017-11-30T12:57:49.729Z,77.15
2017-11-30T12:59:53.667Z,77.19
2017-11-30T13:01:56.947Z,77.21
2017-11-30T13:03:59.824Z,77.22
2017-11-30T13:06:02.909Z,77.20
2017-11-30T13:08:05.781Z,77.24
2017-11-30T13:10:09.096Z,77.26
2017-11-30T13:12:12.079Z,77.20
2017-11-30T13:14:15.251Z,77.21
2017-11-30T13:16:18.436Z,77.06
2017-11-30T13:18:21.837Z,77.05
2017-11-30T13:20:24.922Z,76.94
2017-11-30T13:22:29.784Z,77.07
2017-11-30T13:24:33.196Z,77.01
2017-11-30T13:26:36.680Z,77.03
2017-11-30T13:28:40.615Z,76.92
2017-11-30T13:30:43.146Z,76.92
2017-11-30T13:32:46.839Z,76.87
2017-11-30T13:34:50.149Z,76.92
2017-11-30T13:36:53.120Z,76.91
2017-11-30T13:38:56.078Z,76.87
2017-11-30T13:40:59.398Z,76.81
2017-11-30T13:43:01.976Z,76.81
2017-11-30T13:45:05.161Z,76.78
2017-11-30T13:47:08.179Z,76.65
2017-11-30T13:49:11.430Z,76.64
2017-11-30T13:51:14.023Z,76.72
2017-11-30T13:53:16.896Z,76.69
2017-11-30T13:55:19.980Z,76.61
2017-11-30T13:57:22.879Z,76.63
2017-11-30T13:59:25.833Z,76.59
2017-11-30T14:03:37.748Z,76.62
2017-11-30T14:05:40.944Z,76.56
2017-11-30T14:07:46.440Z,76.57
2017-11-30T14:09:49.721Z,76.61
2017-11-30T14:11:53.004Z,76.58
2017-11-30T14:13:56.104Z,76.62
2017-11-30T14:15:59.734Z,76.65
2017-11-30T14:18:02.941Z,76.57
2017-11-30T14:20:05.841Z,76.58
2017-11-30T14:22:09.033Z,76.63
2017-11-30T14:24:13.121Z,76.65
2017-11-30T14:26:17.051Z,76.65
2017-11-30T14:28:19.930Z,76.67
2017-11-30T14:30:22.783Z,76.67
2017-11-30T14:32:26.366Z,76.67
2017-11-30T14:34:29.008Z,76.68
2017-11-30T14:36:31.892Z,76.72
2017-11-30T14:38:34.868Z,76.75
2017-11-30T14:40:37.761Z,76.77
2017-11-30T14:42:40.736Z,76.78
2017-11-30T14:44:44.045Z,76.80
2017-11-30T14:46:46.903Z,76.81
2017-11-30T14:48:49.736Z,76.82
2017-11-30T14:50:52.974Z,76.81
2017-11-30T14:52:56.249Z,76.83
2017-11-30T14:55:00.069Z,76.84
2017-11-30T14:57:05.384Z,76.84
2017-11-30T14:59:09.195Z,76.90
2017-11-30T15:02:07.094Z,76.90
2017-11-30T15:04:10.392Z,76.90
2017-11-30T15:06:14.894Z,76.89
2017-11-30T15:08:17.995Z,76.91
2017-11-30T15:10:21.096Z,76.99
2017-11-30T15:12:23.872Z,77.03
2017-11-30T15:14:27.013Z,77.00
2017-11-30T15:16:29.784Z,77.01
2017-11-30T15:20:44.937Z,77.07
2017-11-30T15:22:48.064Z,77.11
2017-11-30T15:24:50.977Z,77.11
2017-11-30T15:26:53.575Z,77.19
2017-11-30T15:28:56.051Z,77.19
2017-11-30T15:30:59.033Z,77.20
2017-11-30T15:33:02.021Z,77.23
2017-11-30T15:35:05.555Z,77.23
2017-11-30T15:37:08.397Z,77.28
2017-11-30T15:39:11.009Z,77.24
2017-11-30T15:41:13.570Z,77.27
2017-11-30T15:43:16.017Z,77.29
2017-11-30T15:45:18.912Z,77.37
2017-11-30T15:47:21.890Z,77.33
2017-11-30T15:49:24.599Z,77.38
2017-11-30T15:51:27.862Z,77.35
2017-11-30T15:53:31.057Z,77.33
2017-11-30T15:55:33.948Z,77.43
2017-11-30T15:57:37.064Z,77.45
2017-11-30T15:59:40.014Z,77.47
2017-11-30T16:01:43.013Z,77.50
2017-11-30T16:03:45.973Z,77.53
2017-11-30T16:05:49.082Z,77.52
2017-11-30T16:07:51.941Z,77.49
2017-11-30T16:09:54.952Z,77.51
2017-11-30T16:11:57.815Z,77.56
2017-11-30T16:14:00.897Z,77.55
2017-11-30T16:16:03.492Z,77.57
2017-11-30T16:18:06.488Z,77.59
2017-11-30T16:20:09.822Z,77.57
2017-11-30T16:24:23.003Z,77.60
2017-11-30T16:26:25.428Z,77.59
2017-11-30T16:28:27.544Z,77.59
2017-11-30T16:30:30.002Z,77.62
2017-11-30T16:32:32.732Z,77.65
2017-11-30T16:34:36.278Z,77.66
2017-11-30T16:36:38.869Z,77.65
2017-11-30T16:38:41.442Z,77.67
2017-11-30T16:40:43.939Z,77.68
2017-11-30T16:42:46.912Z,77.67
2017-11-30T16:47:11.412Z,77.68
2017-11-30T16:49:13.689Z,77.69
2017-11-30T16:51:16.060Z,77.70
2017-11-30T16:53:37.260Z,77.71
2017-11-30T16:55:40.048Z,77.73
2017-11-30T16:57:43.180Z,77.71
2017-11-30T16:59:45.908Z,77.71
2017-11-30T17:01:48.897Z,77.71
2017-11-30T17:03:52.513Z,77.74
2017-11-30T17:05:55.276Z,77.74
2017-11-30T17:07:58.588Z,77.79
2017-11-30T17:10:01.064Z,77.78
2017-11-30T17:12:03.916Z,77.79
2017-11-30T17:14:06.410Z,77.84
2017-11-30T17:16:09.310Z,77.86
2017-11-30T17:18:11.988Z,77.89
2017-11-30T17:20:14.842Z,77.89
2017-11-30T17:22:17.010Z,77.91
2017-11-30T17:24:20.132Z,77.96
2017-11-30T17:26:23.013Z,77.96
2017-11-30T17:28:25.974Z,78.00
2017-11-30T17:30:28.762Z,78.10
2017-11-30T17:32:31.097Z,78.08
2017-11-30T17:34:34.006Z,78.08
2017-11-30T17:36:36.867Z,78.08
2017-11-30T17:38:40.002Z,78.09
2017-11-30T17:40:42.976Z,78.18
2017-11-30T17:42:45.850Z,78.14
2017-11-30T17:44:49.044Z,78.15
2017-11-30T17:46:51.940Z,78.23
2017-11-30T17:48:54.794Z,78.20
2017-11-30T17:50:57.489Z,78.25
2017-11-30T17:53:00.397Z,78.25
2017-11-30T17:55:03.564Z,78.19
2017-11-30T17:57:06.850Z,78.22
2017-11-30T17:59:09.427Z,78.23
2017-11-30T18:01:11.977Z,78.22
2017-11-30T18:03:14.592Z,78.25
2017-11-30T18:05:16.839Z,78.29
2017-11-30T18:07:19.823Z,78.28
2017-11-30T18:09:23.026Z,78.26
2017-11-30T18:11:25.733Z,78.25
2017-11-30T18:13:27.973Z,78.25
2017-11-30T18:15:30.973Z,78.26
2017-11-30T18:17:33.832Z,78.22
2017-11-30T18:19:36.815Z,78.22
2017-11-30T18:21:39.816Z,78.20
2017-11-30T18:23:42.590Z,78.21
2017-11-30T18:25:45.630Z,78.23
2017-11-30T18:27:48.064Z,78.26
2017-11-30T18:29:51.530Z,78.24
2017-11-30T18:31:54.990Z,78.22
2017-11-30T18:33:57.727Z,78.24
2017-11-30T18:36:01.015Z,78.24
2017-11-30T18:38:03.989Z,78.24
2017-11-30T18:40:06.887Z,78.27
2017-11-30T18:42:10.496Z,78.28
2017-11-30T18:44:13.246Z,78.24
2017-11-30T18:52:17.732Z,78.26
2017-11-30T18:54:20.069Z,78.29
2017-11-30T18:56:23.517Z,78.29
2017-11-30T18:58:26.058Z,78.29
2017-11-30T19:00:28.960Z,78.29
2017-11-30T19:02:31.291Z,78.28
2017-11-30T19:04:33.723Z,78.32
2017-11-30T19:06:36.488Z,78.33
2017-11-30T19:08:39.058Z,78.34
2017-11-30T19:10:41.846Z,78.35
2017-11-30T19:12:44.815Z,78.36
2017-11-30T19:14:47.511Z,78.37
2017-11-30T19:16:49.681Z,78.40
2017-11-30T19:18:51.302Z,78.43
2017-11-30T19:20:53.284Z,78.45
2017-11-30T19:22:55.291Z,78.37
2017-11-30T19:24:57.273Z,78.39
2017-11-30T19:26:59.401Z,78.42
2017-11-30T19:29:01.351Z,78.44
2017-11-30T19:31:03.299Z,78.43
2017-11-30T19:33:05.284Z,78.45
2017-11-30T19:35:07.308Z,78.54
2017-11-30T19:37:09.270Z,78.46
2017-11-30T19:39:11.287Z,78.49
2017-11-30T19:41:13.280Z,78.52
2017-11-30T19:43:15.336Z,78.54
2017-11-30T19:45:17.284Z,78.54
2017-11-30T19:47:19.249Z,78.52
2017-11-30T19:49:21.279Z,78.52
2017-11-30T19:51:23.236Z,78.54
2017-11-30T19:53:25.282Z,78.53
2017-11-30T19:55:27.276Z,78.57
2017-11-30T19:57:29.292Z,78.54
2017-11-30T19:59:31.296Z,78.57
2017-11-30T20:01:33.421Z,78.55
2017-11-30T20:03:35.258Z,78.59
2017-11-30T20:05:37.284Z,78.53
2017-11-30T20:07:39.264Z,78.56
2017-11-30T20:09:41.289Z,78.60
2017-11-30T20:11:43.294Z,78.62
2017-11-30T20:13:45.428Z,78.62
2017-11-30T20:15:47.303Z,78.63
2017-11-30T20:17:49.278Z,78.64
2017-11-30T20:19:51.296Z,78.62
2017-11-30T20:21:53.456Z,78.61
2017-11-30T20:23:57.286Z,78.62
2017-11-30T20:25:59.284Z,78.65
2017-11-30T20:28:01.200Z,78.68
2017-11-30T20:30:03.286Z,78.64
2017-11-30T20:32:05.284Z,78.63
2017-11-30T20:34:07.287Z,78.63
2017-11-30T20:36:09.276Z,78.64
2017-11-30T20:38:11.298Z,78.65
2017-11-30T20:40:13.313Z,78.69
2017-11-30T20:42:15.242Z,78.66
2017-11-30T20:44:17.233Z,78.64
2017-11-30T20:46:19.240Z,78.70
2017-11-30T20:48:21.423Z,78.71
2017-11-30T20:50:23.275Z,78.67
2017-11-30T20:52:25.276Z,78.67
2017-11-30T20:54:27.289Z,78.67
2017-11-30T20:56:29.277Z,78.69
2017-11-30T20:58:31.286Z,78.68
2017-11-30T21:00:33.258Z,78.71
2017-11-30T21:02:35.239Z,78.75
2017-11-30T21:04:37.274Z,78.74
2017-11-30T21:06:39.255Z,78.72
2017-11-30T21:08:41.292Z,78.74
2017-11-30T21:10:43.272Z,78.79
2017-11-30T21:12:45.282Z,78.78
2017-11-30T21:14:47.233Z,78.79
2017-11-30T21:16:49.306Z,78.76
2017-11-30T21:18:51.358Z,78.85
2017-11-30T21:20:53.418Z,78.83
2017-11-30T21:22:55.261Z,78.85
2017-11-30T21:24:57.266Z,78.84
2017-11-30T21:26:59.260Z,78.85
2017-11-30T21:29:01.266Z,78.83
2017-11-30T21:31:03.255Z,78.81
2017-11-30T21:33:05.284Z,78.79
2017-11-30T21:35:07.291Z,78.86
2017-11-30T21:37:09.253Z,78.90
2017-11-30T21:39:11.232Z,78.88
2017-11-30T21:41:13.241Z,78.88
2017-11-30T21:43:15.249Z,78.93
2017-11-30T21:45:17.255Z,78.92
2017-11-30T21:47:19.213Z,78.92
2017-11-30T21:49:21.236Z,78.97
2017-11-30T21:51:23.244Z,78.94
2017-11-30T21:53:25.234Z,78.94
2017-11-30T21:55:27.226Z,79.02
2017-11-30T21:57:29.209Z,78.99
2017-11-30T21:59:31.331Z,79.01
2017-11-30T22:01:33.221Z,79.04
2017-11-30T22:03:35.236Z,79.03
2017-11-30T22:05:37.391Z,79.01
2017-11-30T22:07:39.220Z,79.05
2017-11-30T22:09:41.235Z,79.06
2017-11-30T22:11:43.113Z,79.06
2017-11-30T22:13:45.089Z,79.05
2017-11-30T22:15:47.208Z,79.08
2017-11-30T22:17:49.248Z,79.07
2017-11-30T22:19:51.239Z,79.07
2017-11-30T22:21:53.242Z,79.07
2017-11-30T22:23:55.306Z,79.09
2017-11-30T22:25:57.329Z,79.10
2017-11-30T22:28:00.004Z,79.11
2017-11-30T22:30:01.858Z,79.10
2017-11-30T22:32:03.647Z,79.14
2017-11-30T22:34:05.289Z,79.10
2017-11-30T22:36:07.244Z,79.14
2017-11-30T22:38:09.257Z,79.15
2017-11-30T22:40:11.243Z,79.16
2017-11-30T22:42:13.238Z,79.15
2017-11-30T22:44:15.239Z,79.14
2017-11-30T22:46:17.251Z,79.16
2017-11-30T22:48:19.244Z,79.15
2017-11-30T22:50:21.261Z,79.13
2017-11-30T22:52:23.226Z,79.12
2017-11-30T22:54:25.228Z,79.16
2017-11-30T22:56:55.703Z,79.12
2017-11-30T22:58:57.857Z,79.13
2017-11-30T23:01:01.871Z,79.13
2017-11-30T23:03:03.833Z,79.11
2017-11-30T23:05:05.779Z,79.14
2017-11-30T23:07:07.755Z,79.14
2017-11-30T23:09:09.895Z,79.18
2017-11-30T23:11:12.413Z,79.18
2017-11-30T23:13:14.886Z,79.16
2017-11-30T23:15:17.088Z,79.12
2017-11-30T23:17:19.715Z,79.12
2017-11-30T23:19:21.883Z,79.18
2017-11-30T23:21:24.047Z,79.20
2017-11-30T23:23:26.446Z,79.19
2017-11-30T23:25:28.789Z,79.17
2017-11-30T23:27:30.958Z,79.17
2017-11-30T23:29:32.994Z,79.19
2017-11-30T23:31:35.516Z,79.18
2017-11-30T23:33:37.870Z,79.21
2017-11-30T23:35:39.824Z,79.17
2017-11-30T23:37:41.955Z,79.16
2017-11-30T23:39:44.388Z,79.18
2017-11-30T23:41:46.284Z,79.16
2017-11-30T23:43:48.616Z,79.22
2017-11-30T23:45:50.863Z,79.24
2017-11-30T23:47:52.902Z,79.23
2017-11-30T23:49:54.998Z,79.19
2017-11-30T23:51:57.014Z,79.21
2017-11-30T23:53:59.442Z,79.23
2017-11-30T23:56:03.008Z,79.19
2017-11-30T23:58:05.404Z,79.24
